sensor_id;sensor_type;location;lat;lon;timestamp;pressure;altitude;pressure_sealevel;temperature;humidity
29247;BME280;16272;48.188;9.964;2023-04-08T00:00:20;95950.59;;;7.84;76.61
29247;BME280;16272;48.188;9.964;2023-04-08T00:02:45;95950.78;;;7.93;75.96
29247;BME280;16272;48.188;9.964;2023-04-08T00:05:11;95941.03;;;7.72;77.08
29247;BME280;16272;48.188;9.964;2023-04-08T00:07:36;95944.63;;;7.40;77.65
29247;BME280;16272;48.188;9.964;2023-04-08T00:10:02;95948.34;;;7.59;76.87
29247;BME280;16272;48.188;9.964;2023-04-08T00:12:27;95951.69;;;7.61;77.08
29247;BME280;16272;48.188;9.964;2023-04-08T00:14:53;95945.06;;;7.66;76.01
29247;BME280;16272;48.188;9.964;2023-04-08T00:17:18;95947.66;;;7.57;76.75
29247;BME280;16272;48.188;9.964;2023-04-08T00:19:44;95951.88;;;7.69;76.75
29247;BME280;16272;48.188;9.964;2023-04-08T00:22:09;95947.19;;;7.51;77.99
29247;BME280;16272;48.188;9.964;2023-04-08T00:24:35;95948.84;;;7.52;77.91
29247;BME280;16272;48.188;9.964;2023-04-08T00:27:01;95952.28;;;7.43;78.37
29247;BME280;16272;48.188;9.964;2023-04-08T00:29:27;95947.91;;;7.53;78.29
29247;BME280;16272;48.188;9.964;2023-04-08T00:31:52;95946.69;;;7.58;77.37
29247;BME280;16272;48.188;9.964;2023-04-08T00:34:18;95946.03;;;7.44;78.00
29247;BME280;16272;48.188;9.964;2023-04-08T00:36:43;95949.28;;;7.48;77.95
29247;BME280;16272;48.188;9.964;2023-04-08T00:39:09;95947.72;;;7.45;77.85
29247;BME280;16272;48.188;9.964;2023-04-08T00:41:35;95943.66;;;7.41;77.52
29247;BME280;16272;48.188;9.964;2023-04-08T00:44:01;95949.34;;;7.58;77.49
29247;BME280;16272;48.188;9.964;2023-04-08T00:46:26;95947.13;;;7.63;76.90
29247;BME280;16272;48.188;9.964;2023-04-08T00:48:53;95944.31;;;7.54;77.08
29247;BME280;16272;48.188;9.964;2023-04-08T00:51:18;95945.38;;;7.52;77.55
29247;BME280;16272;48.188;9.964;2023-04-08T00:53:44;95951.78;;;7.49;76.65
29247;BME280;16272;48.188;9.964;2023-04-08T00:56:11;95957.31;;;7.46;77.77
29247;BME280;16272;48.188;9.964;2023-04-08T00:58:37;95951.78;;;7.49;77.11
29247;BME280;16272;48.188;9.964;2023-04-08T01:01:06;95938.09;;;7.44;77.24
29247;BME280;16272;48.188;9.964;2023-04-08T01:04:00;95939.53;;;7.69;77.23
29247;BME280;16272;48.188;9.964;2023-04-08T01:09:04;95949.47;;;7.56;77.19
29247;BME280;16272;48.188;9.964;2023-04-08T01:11:31;95948.66;;;7.44;77.70
29247;BME280;16272;48.188;9.964;2023-04-08T01:14:01;95951.25;;;7.55;77.49
29247;BME280;16272;48.188;9.964;2023-04-08T01:16:30;95942.47;;;7.34;78.50
29247;BME280;16272;48.188;9.964;2023-04-08T01:18:56;95945.50;;;7.71;76.91
29247;BME280;16272;48.188;9.964;2023-04-08T01:21:22;95945.97;;;7.55;77.38
29247;BME280;16272;48.188;9.964;2023-04-08T01:23:58;95946.78;;;7.77;76.67
29247;BME280;16272;48.188;9.964;2023-04-08T01:26:25;95947.50;;;7.79;77.14
29247;BME280;16272;48.188;9.964;2023-04-08T01:28:52;95950.38;;;7.97;75.84
29247;BME280;16272;48.188;9.964;2023-04-08T01:31:21;95941.59;;;7.66;76.71
29247;BME280;16272;48.188;9.964;2023-04-08T01:33:50;95942.56;;;7.96;75.98
29247;BME280;16272;48.188;9.964;2023-04-08T01:36:17;95945.31;;;7.84;77.22
29247;BME280;16272;48.188;9.964;2023-04-08T01:38:45;95951.38;;;7.75;75.98
29247;BME280;16272;48.188;9.964;2023-04-08T01:41:11;95940.00;;;7.84;76.21
29247;BME280;16272;48.188;9.964;2023-04-08T01:43:38;95946.06;;;7.96;76.15
29247;BME280;16272;48.188;9.964;2023-04-08T01:46:06;95941.16;;;7.91;75.77
29247;BME280;16272;48.188;9.964;2023-04-08T01:48:33;95948.78;;;7.85;76.36
29247;BME280;16272;48.188;9.964;2023-04-08T01:51:00;95940.84;;;7.85;76.89
29247;BME280;16272;48.188;9.964;2023-04-08T01:53:26;95946.44;;;7.91;76.14
29247;BME280;16272;48.188;9.964;2023-04-08T01:55:56;95952.53;;;7.82;76.31
29247;BME280;16272;48.188;9.964;2023-04-08T01:58:23;95942.47;;;7.76;76.63
29247;BME280;16272;48.188;9.964;2023-04-08T02:00:57;95943.28;;;7.98;75.86
29247;BME280;16272;48.188;9.964;2023-04-08T02:03:23;95948.66;;;7.86;76.00
29247;BME280;16272;48.188;9.964;2023-04-08T02:05:49;95944.63;;;7.61;76.98
29247;BME280;16272;48.188;9.964;2023-04-08T02:08:15;95950.59;;;7.84;76.81
29247;BME280;16272;48.188;9.964;2023-04-08T02:10:40;95947.56;;;7.89;76.91
29247;BME280;16272;48.188;9.964;2023-04-08T02:13:06;95942.06;;;8.02;75.41
29247;BME280;16272;48.188;9.964;2023-04-08T02:15:33;95950.16;;;8.10;75.14
29247;BME280;16272;48.188;9.964;2023-04-08T02:18:07;95948.97;;;7.93;76.10
29247;BME280;16272;48.188;9.964;2023-04-08T02:20:43;95948.84;;;7.73;76.95
29247;BME280;16272;48.188;9.964;2023-04-08T02:23:16;95950.47;;;7.65;77.29
29247;BME280;16272;48.188;9.964;2023-04-08T02:25:44;95948.59;;;7.77;76.96
29247;BME280;16272;48.188;9.964;2023-04-08T02:28:11;95950.16;;;7.58;77.71
29247;BME280;16272;48.188;9.964;2023-04-08T02:30:41;95950.78;;;7.93;77.04
29247;BME280;16272;48.188;9.964;2023-04-08T02:33:07;95946.38;;;7.82;76.77
29247;BME280;16272;48.188;9.964;2023-04-08T02:35:34;95946.34;;;7.72;76.93
29247;BME280;16272;48.188;9.964;2023-04-08T02:38:00;95952.25;;;7.85;77.43
29247;BME280;16272;48.188;9.964;2023-04-08T02:40:31;95947.97;;;7.63;77.25
29247;BME280;16272;48.188;9.964;2023-04-08T02:42:58;95944.09;;;7.67;77.49
29247;BME280;16272;48.188;9.964;2023-04-08T02:45:27;95950.84;;;7.81;77.06
29247;BME280;16272;48.188;9.964;2023-04-08T02:47:58;95946.06;;;7.75;76.43
29247;BME280;16272;48.188;9.964;2023-04-08T02:50:24;95953.75;;;7.78;76.81
29247;BME280;16272;48.188;9.964;2023-04-08T02:52:49;95949.84;;;7.72;76.63
29247;BME280;16272;48.188;9.964;2023-04-08T02:55:15;95950.91;;;7.70;77.48
29247;BME280;16272;48.188;9.964;2023-04-08T02:57:41;95951.38;;;7.75;77.20
29247;BME280;16272;48.188;9.964;2023-04-08T03:00:07;95953.38;;;7.83;76.84
29247;BME280;16272;48.188;9.964;2023-04-08T03:02:32;95954.38;;;7.91;76.94
29247;BME280;16272;48.188;9.964;2023-04-08T03:04:58;95949.59;;;7.85;76.99
29247;BME280;16272;48.188;9.964;2023-04-08T03:07:24;95960.53;;;7.71;76.61
29247;BME280;16272;48.188;9.964;2023-04-08T03:09:49;95955.31;;;7.81;77.62
29247;BME280;16272;48.188;9.964;2023-04-08T03:12:26;95950.06;;;7.90;77.33
29247;BME280;16272;48.188;9.964;2023-04-08T03:14:52;95948.50;;;7.88;77.02
29247;BME280;16272;48.188;9.964;2023-04-08T03:17:18;95957.63;;;8.05;76.67
29247;BME280;16272;48.188;9.964;2023-04-08T03:19:43;95944.78;;;7.90;76.84
29247;BME280;16272;48.188;9.964;2023-04-08T03:22:09;95953.41;;;7.93;76.37
29247;BME280;16272;48.188;9.964;2023-04-08T03:24:35;95953.53;;;7.91;75.78
29247;BME280;16272;48.188;9.964;2023-04-08T03:27:00;95955.50;;;7.89;76.69
29247;BME280;16272;48.188;9.964;2023-04-08T03:29:27;95961.69;;;7.78;77.17
29247;BME280;16272;48.188;9.964;2023-04-08T03:31:52;95953.06;;;7.76;77.53
29247;BME280;16272;48.188;9.964;2023-04-08T03:34:18;95958.59;;;7.73;77.19
29247;BME280;16272;48.188;9.964;2023-04-08T03:36:44;95962.19;;;7.72;77.13
29247;BME280;16272;48.188;9.964;2023-04-08T03:39:09;95960.00;;;7.77;77.30
29247;BME280;16272;48.188;9.964;2023-04-08T03:41:35;95957.81;;;7.82;77.14
29247;BME280;16272;48.188;9.964;2023-04-08T03:44:00;95961.13;;;7.75;77.20
29247;BME280;16272;48.188;9.964;2023-04-08T03:46:26;95966.66;;;7.71;77.62
29247;BME280;16272;48.188;9.964;2023-04-08T03:48:53;95965.56;;;7.74;77.51
29247;BME280;16272;48.188;9.964;2023-04-08T03:51:18;95961.88;;;7.65;77.29
29247;BME280;16272;48.188;9.964;2023-04-08T03:53:44;95962.53;;;7.58;77.61
29247;BME280;16272;48.188;9.964;2023-04-08T03:56:09;95969.94;;;7.64;77.52
29247;BME280;16272;48.188;9.964;2023-04-08T03:58:34;95966.78;;;7.70;77.16
29247;BME280;16272;48.188;9.964;2023-04-08T04:01:00;95970.06;;;7.83;76.87
29247;BME280;16272;48.188;9.964;2023-04-08T04:03:25;95964.31;;;7.78;75.42
29247;BME280;16272;48.188;9.964;2023-04-08T04:05:51;95970.13;;;7.72;76.84
29247;BME280;16272;48.188;9.964;2023-04-08T04:08:16;95969.94;;;7.64;76.98
29247;BME280;16272;48.188;9.964;2023-04-08T04:10:42;95973.03;;;7.69;77.09
29247;BME280;16272;48.188;9.964;2023-04-08T04:13:07;95970.56;;;7.77;76.74
29247;BME280;16272;48.188;9.964;2023-04-08T04:15:32;95980.91;;;7.59;77.26
29247;BME280;16272;48.188;9.964;2023-04-08T04:17:58;95967.63;;;7.49;77.28
29247;BME280;16272;48.188;9.964;2023-04-08T04:20:23;95982.31;;;7.63;77.56
29247;BME280;16272;48.188;9.964;2023-04-08T04:22:50;95985.94;;;7.62;77.82
29247;BME280;16272;48.188;9.964;2023-04-08T04:25:15;95983.59;;;7.69;77.73
29247;BME280;16272;48.188;9.964;2023-04-08T04:27:40;95974.63;;;7.39;78.22
29247;BME280;16272;48.188;9.964;2023-04-08T04:30:06;95982.97;;;7.55;77.59
29247;BME280;16272;48.188;9.964;2023-04-08T04:32:33;95987.88;;;7.81;75.56
29247;BME280;16272;48.188;9.964;2023-04-08T04:34:59;95988.38;;;7.96;75.16
29247;BME280;16272;48.188;9.964;2023-04-08T04:37:24;95989.88;;;7.89;75.10
29247;BME280;16272;48.188;9.964;2023-04-08T04:39:50;95992.44;;;7.58;76.40
29247;BME280;16272;48.188;9.964;2023-04-08T04:42:15;95991.91;;;7.85;75.95
29247;BME280;16272;48.188;9.964;2023-04-08T04:44:41;95990.06;;;7.76;75.81
29247;BME280;16272;48.188;9.964;2023-04-08T04:47:06;95984.78;;;7.76;76.83
29247;BME280;16272;48.188;9.964;2023-04-08T04:49:32;95992.75;;;8.07;74.70
29247;BME280;16272;48.188;9.964;2023-04-08T04:51:57;95992.66;;;7.87;75.86
29247;BME280;16272;48.188;9.964;2023-04-08T04:54:23;95999.00;;;7.64;76.38
29247;BME280;16272;48.188;9.964;2023-04-08T04:56:48;95996.50;;;7.62;77.30
29247;BME280;16272;48.188;9.964;2023-04-08T04:59:14;95999.47;;;7.69;77.49
29247;BME280;16272;48.188;9.964;2023-04-08T05:01:39;95999.47;;;7.69;76.77
29247;BME280;16272;48.188;9.964;2023-04-08T05:04:06;95995.94;;;7.80;76.78
29247;BME280;16272;48.188;9.964;2023-04-08T05:06:31;96004.97;;;7.56;77.69
29247;BME280;16272;48.188;9.964;2023-04-08T05:08:57;95995.72;;;7.50;77.77
29247;BME280;16272;48.188;9.964;2023-04-08T05:11:22;95999.75;;;7.66;77.58
29247;BME280;16272;48.188;9.964;2023-04-08T05:13:47;95998.88;;;7.65;77.37
29247;BME280;16272;48.188;9.964;2023-04-08T05:16:14;95999.59;;;7.46;77.81
29247;BME280;16272;48.188;9.964;2023-04-08T05:18:39;96004.63;;;7.49;78.21
29247;BME280;16272;48.188;9.964;2023-04-08T05:21:05;96005.56;;;7.27;79.08
29247;BME280;16272;48.188;9.964;2023-04-08T05:23:30;96005.47;;;7.50;79.07
29247;BME280;16272;48.188;9.964;2023-04-08T05:25:55;96012.41;;;7.51;78.50
29247;BME280;16272;48.188;9.964;2023-04-08T05:28:21;96018.63;;;7.61;77.96
29247;BME280;16272;48.188;9.964;2023-04-08T05:30:49;96020.59;;;7.69;77.65
29247;BME280;16272;48.188;9.964;2023-04-08T05:33:16;96016.25;;;7.79;77.48
29247;BME280;16272;48.188;9.964;2023-04-08T05:35:41;96017.09;;;7.80;77.16
29247;BME280;16272;48.188;9.964;2023-04-08T05:38:06;96021.28;;;7.82;76.78
29247;BME280;16272;48.188;9.964;2023-04-08T05:40:33;96020.16;;;7.85;76.55
29247;BME280;16272;48.188;9.964;2023-04-08T05:42:58;96019.09;;;7.87;77.02
29247;BME280;16272;48.188;9.964;2023-04-08T05:45:24;96025.91;;;7.90;76.34
29247;BME280;16272;48.188;9.964;2023-04-08T05:47:51;96022.75;;;7.96;76.08
29247;BME280;16272;48.188;9.964;2023-04-08T05:50:16;96024.09;;;7.48;78.30
29247;BME280;16272;48.188;9.964;2023-04-08T05:52:43;96019.91;;;7.13;80.86
29247;BME280;16272;48.188;9.964;2023-04-08T05:55:12;96008.69;;;7.21;81.13
29247;BME280;16272;48.188;9.964;2023-04-08T05:57:38;96014.56;;;7.57;79.71
29247;BME280;16272;48.188;9.964;2023-04-08T06:00:08;96019.09;;;7.87;77.78
29247;BME280;16272;48.188;9.964;2023-04-08T06:02:34;96021.13;;;8.05;77.02
29247;BME280;16272;48.188;9.964;2023-04-08T06:05:01;96032.69;;;8.04;77.11
29247;BME280;16272;48.188;9.964;2023-04-08T06:07:28;96023.25;;;7.90;77.06
29247;BME280;16272;48.188;9.964;2023-04-08T06:09:54;96028.28;;;8.14;76.95
29247;BME280;16272;48.188;9.964;2023-04-08T06:12:19;96026.09;;;7.98;77.28
29247;BME280;16272;48.188;9.964;2023-04-08T06:14:45;96027.59;;;7.38;80.31
29247;BME280;16272;48.188;9.964;2023-04-08T06:17:11;96030.03;;;8.04;76.76
29247;BME280;16272;48.188;9.964;2023-04-08T06:19:36;96031.56;;;8.27;75.96
29247;BME280;16272;48.188;9.964;2023-04-08T06:22:03;96026.44;;;8.36;75.92
29247;BME280;16272;48.188;9.964;2023-04-08T06:24:29;96024.69;;;8.46;75.38
29247;BME280;16272;48.188;9.964;2023-04-08T06:26:55;96027.69;;;8.53;75.59
29247;BME280;16272;48.188;9.964;2023-04-08T06:29:21;96020.22;;;8.16;75.48
29247;BME280;16272;48.188;9.964;2023-04-08T06:31:47;96026.03;;;8.61;76.07
29247;BME280;16272;48.188;9.964;2023-04-08T06:34:18;96026.22;;;8.79;75.54
29247;BME280;16272;48.188;9.964;2023-04-08T06:36:44;96034.69;;;8.73;75.29
29247;BME280;16272;48.188;9.964;2023-04-08T06:39:10;96029.69;;;8.80;74.71
29247;BME280;16272;48.188;9.964;2023-04-08T06:41:35;96030.72;;;8.98;74.47
29247;BME280;16272;48.188;9.964;2023-04-08T06:44:01;96031.19;;;9.23;73.57
29247;BME280;16272;48.188;9.964;2023-04-08T06:46:26;96035.66;;;9.32;73.32
29247;BME280;16272;48.188;9.964;2023-04-08T06:48:51;96028.97;;;9.18;73.32
29247;BME280;16272;48.188;9.964;2023-04-08T06:51:17;96043.97;;;8.89;73.10
29247;BME280;16272;48.188;9.964;2023-04-08T06:53:42;96036.88;;;9.09;73.49
29247;BME280;16272;48.188;9.964;2023-04-08T06:56:08;96038.69;;;9.08;72.71
29247;BME280;16272;48.188;9.964;2023-04-08T06:58:33;96041.81;;;9.23;71.98
29247;BME280;16272;48.188;9.964;2023-04-08T07:00:59;96049.09;;;8.90;72.93
29247;BME280;16272;48.188;9.964;2023-04-08T07:03:25;96040.22;;;9.11;71.55
29247;BME280;16272;48.188;9.964;2023-04-08T07:05:51;96047.25;;;9.22;71.65
29247;BME280;16272;48.188;9.964;2023-04-08T07:08:16;96049.28;;;9.08;71.78
29247;BME280;16272;48.188;9.964;2023-04-08T07:10:42;96052.34;;;8.94;71.59
29247;BME280;16272;48.188;9.964;2023-04-08T07:13:17;96049.69;;;8.94;72.01
29247;BME280;16272;48.188;9.964;2023-04-08T07:15:42;96059.69;;;8.90;72.75
29247;BME280;16272;48.188;9.964;2023-04-08T07:18:09;96059.81;;;8.79;73.77
29247;BME280;16272;48.188;9.964;2023-04-08T07:20:35;96060.44;;;8.61;74.30
29247;BME280;16272;48.188;9.964;2023-04-08T07:23:02;96066.25;;;8.86;72.87
29247;BME280;16272;48.188;9.964;2023-04-08T07:25:27;96063.34;;;8.58;73.84
29247;BME280;16272;48.188;9.964;2023-04-08T07:27:53;96069.34;;;8.60;73.68
29247;BME280;16272;48.188;9.964;2023-04-08T07:30:18;96065.31;;;8.56;72.92
29247;BME280;16272;48.188;9.964;2023-04-08T07:32:45;96073.25;;;8.56;73.30
29247;BME280;16272;48.188;9.964;2023-04-08T07:35:16;96076.41;;;8.50;72.45
29247;BME280;16272;48.188;9.964;2023-04-08T07:37:48;96073.38;;;8.55;71.96
29247;BME280;16272;48.188;9.964;2023-04-08T07:40:14;96070.50;;;8.68;71.29
29247;BME280;16272;48.188;9.964;2023-04-08T07:42:39;96074.28;;;8.75;70.98
29247;BME280;16272;48.188;9.964;2023-04-08T07:45:05;96075.06;;;8.96;70.76
29247;BME280;16272;48.188;9.964;2023-04-08T07:47:30;96075.53;;;8.80;70.58
29247;BME280;16272;48.188;9.964;2023-04-08T07:49:56;96068.47;;;8.81;70.22
29247;BME280;16272;48.188;9.964;2023-04-08T07:52:21;96083.50;;;8.80;70.45
29247;BME280;16272;48.188;9.964;2023-04-08T07:54:46;96083.44;;;8.61;70.65
29247;BME280;16272;48.188;9.964;2023-04-08T07:57:12;96087.34;;;8.97;70.08
29247;BME280;16272;48.188;9.964;2023-04-08T07:59:37;96088.19;;;9.08;69.47
29247;BME280;16272;48.188;9.964;2023-04-08T08:02:02;96082.38;;;9.14;69.13
29247;BME280;16272;48.188;9.964;2023-04-08T08:04:28;96078.75;;;9.34;68.79
29247;BME280;16272;48.188;9.964;2023-04-08T08:06:53;96086.03;;;9.32;68.29
29247;BME280;16272;48.188;9.964;2023-04-08T08:09:18;96094.84;;;8.92;69.93
29247;BME280;16272;48.188;9.964;2023-04-08T08:11:44;96081.56;;;9.43;68.61
29247;BME280;16272;48.188;9.964;2023-04-08T08:14:17;96092.16;;;9.23;68.92
29247;BME280;16272;48.188;9.964;2023-04-08T08:16:42;96088.28;;;9.47;67.90
29247;BME280;16272;48.188;9.964;2023-04-08T08:19:08;96098.84;;;9.27;67.75
29247;BME280;16272;48.188;9.964;2023-04-08T08:21:37;96091.06;;;9.35;68.07
29247;BME280;16272;48.188;9.964;2023-04-08T08:24:03;96092.47;;;9.59;68.41
29247;BME280;16272;48.188;9.964;2023-04-08T08:26:29;96097.63;;;9.31;69.38
29247;BME280;16272;48.188;9.964;2023-04-08T08:28:54;96094.84;;;9.62;68.33
29247;BME280;16272;48.188;9.964;2023-04-08T08:31:20;96100.56;;;9.77;66.76
29247;BME280;16272;48.188;9.964;2023-04-08T08:33:45;96095.13;;;9.79;67.70
29247;BME280;16272;48.188;9.964;2023-04-08T08:36:11;96099.47;;;9.80;67.70
29247;BME280;16272;48.188;9.964;2023-04-08T08:38:37;96098.50;;;9.81;67.89
29247;BME280;16272;48.188;9.964;2023-04-08T08:41:04;96102.53;;;10.14;67.19
29247;BME280;16272;48.188;9.964;2023-04-08T08:43:29;96108.25;;;9.90;66.92
29247;BME280;16272;48.188;9.964;2023-04-08T08:46:01;96103.94;;;9.89;67.32
29247;BME280;16272;48.188;9.964;2023-04-08T08:48:28;96106.31;;;9.92;66.33
29247;BME280;16272;48.188;9.964;2023-04-08T08:50:55;96109.25;;;10.08;66.77
29247;BME280;16272;48.188;9.964;2023-04-08T08:53:28;96108.13;;;9.82;68.10
29247;BME280;16272;48.188;9.964;2023-04-08T08:55:53;96107.28;;;9.71;67.87
29247;BME280;16272;48.188;9.964;2023-04-08T08:58:18;96114.13;;;9.64;68.62
29247;BME280;16272;48.188;9.964;2023-04-08T09:00:44;96111.75;;;9.71;68.20
29247;BME280;16272;48.188;9.964;2023-04-08T09:03:24;96114.53;;;9.60;68.42
29247;BME280;16272;48.188;9.964;2023-04-08T09:06:06;96113.69;;;9.79;68.79
29247;BME280;16272;48.188;9.964;2023-04-08T09:08:35;96119.72;;;10.00;67.64
29247;BME280;16272;48.188;9.964;2023-04-08T09:11:14;96121.66;;;9.98;66.67
29247;BME280;16272;48.188;9.964;2023-04-08T09:13:43;96127.09;;;9.48;68.86
29247;BME280;16272;48.188;9.964;2023-04-08T09:16:17;96132.28;;;9.98;67.74
29247;BME280;16272;48.188;9.964;2023-04-08T09:18:44;96122.34;;;10.39;66.79
29247;BME280;16272;48.188;9.964;2023-04-08T09:21:12;96123.06;;;10.02;67.21
29247;BME280;16272;48.188;9.964;2023-04-08T09:23:46;96125.69;;;10.32;67.50
29247;BME280;16272;48.188;9.964;2023-04-08T09:26:12;96127.78;;;10.47;65.57
29247;BME280;16272;48.188;9.964;2023-04-08T09:28:39;96126.06;;;10.76;63.97
29247;BME280;16272;48.188;9.964;2023-04-08T09:31:23;96122.44;;;10.57;65.49
29247;BME280;16272;48.188;9.964;2023-04-08T09:33:51;96130.88;;;10.43;65.25
29247;BME280;16272;48.188;9.964;2023-04-08T09:36:18;96123.38;;;10.85;64.96
29247;BME280;16272;48.188;9.964;2023-04-08T09:38:44;96114.56;;;11.13;62.21
29247;BME280;16272;48.188;9.964;2023-04-08T09:41:17;96115.94;;;10.89;63.26
29247;BME280;16272;48.188;9.964;2023-04-08T09:43:49;96117.34;;;11.67;60.99
29247;BME280;16272;48.188;9.964;2023-04-08T09:46:26;96123.25;;;11.05;63.19
29247;BME280;16272;48.188;9.964;2023-04-08T09:54:31;96123.38;;;10.85;61.36
29247;BME280;16272;48.188;9.964;2023-04-08T09:57:04;96125.16;;;11.22;61.03
29247;BME280;16272;48.188;9.964;2023-04-08T09:59:35;96122.91;;;10.90;61.57
29247;BME280;16272;48.188;9.964;2023-04-08T10:02:06;96125.88;;;11.15;59.41
29247;BME280;16272;48.188;9.964;2023-04-08T10:04:38;96119.84;;;11.22;60.10
29247;BME280;16272;48.188;9.964;2023-04-08T10:07:13;96133.03;;;11.14;61.73
29247;BME280;16272;48.188;9.964;2023-04-08T10:09:39;96128.56;;;11.05;59.06
29247;BME280;16272;48.188;9.964;2023-04-08T10:12:07;96130.28;;;10.59;61.16
29247;BME280;16272;48.188;9.964;2023-04-08T10:15:44;96126.22;;;10.64;59.71
29247;BME280;16272;48.188;9.964;2023-04-08T10:17:51;96133.28;;;10.83;58.68
29247;BME280;16272;48.188;9.964;2023-04-08T10:23:08;96124.91;;;9.92;58.21
29247;BME280;16272;48.188;9.964;2023-04-08T10:25:43;96116.34;;;10.94;58.58
29247;BME280;16272;48.188;9.964;2023-04-08T10:36:07;96134.19;;;9.07;58.49
29247;BME280;16272;48.188;9.964;2023-04-08T10:38:36;96141.28;;;8.65;60.51
29247;BME280;16272;48.188;9.964;2023-04-08T10:41:03;96141.09;;;9.19;61.40
29247;BME280;16272;48.188;9.964;2023-04-08T10:43:33;96145.41;;;9.10;62.36
29247;BME280;16272;48.188;9.964;2023-04-08T10:45:58;96138.53;;;9.58;61.19
29247;BME280;16272;48.188;9.964;2023-04-08T10:48:24;96149.28;;;9.56;61.61
29247;BME280;16272;48.188;9.964;2023-04-08T10:50:54;96144.44;;;9.81;61.42
29247;BME280;16272;48.188;9.964;2023-04-08T10:53:24;96146.91;;;9.63;61.58
29247;BME280;16272;48.188;9.964;2023-04-08T10:55:52;96143.78;;;9.29;62.71
29247;BME280;16272;48.188;9.964;2023-04-08T10:58:17;96139.63;;;9.55;63.25
29247;BME280;16272;48.188;9.964;2023-04-08T11:00:43;96141.66;;;9.23;64.28
29247;BME280;16272;48.188;9.964;2023-04-08T11:03:14;96139.53;;;9.77;65.68
29247;BME280;16272;48.188;9.964;2023-04-08T11:05:39;96144.66;;;9.59;65.17
29247;BME280;16272;48.188;9.964;2023-04-08T11:08:05;96137.53;;;9.59;65.45
29247;BME280;16272;48.188;9.964;2023-04-08T11:10:35;96133.78;;;9.52;62.55
29247;BME280;16272;48.188;9.964;2023-04-08T11:13:01;96121.09;;;10.04;60.72
29247;BME280;16272;48.188;9.964;2023-04-08T11:15:29;96132.97;;;10.10;60.69
29247;BME280;16272;48.188;9.964;2023-04-08T11:17:54;96127.22;;;9.75;60.97
29247;BME280;16272;48.188;9.964;2023-04-08T11:20:21;96136.81;;;9.47;60.97
29247;BME280;16272;48.188;9.964;2023-04-08T11:22:46;96126.28;;;9.86;61.25
29247;BME280;16272;48.188;9.964;2023-04-08T11:25:13;96130.00;;;9.45;59.97
29247;BME280;16272;48.188;9.964;2023-04-08T11:27:38;96128.91;;;9.77;61.17
29247;BME280;16272;48.188;9.964;2023-04-08T11:30:06;96120.41;;;10.12;58.58
29247;BME280;16272;48.188;9.964;2023-04-08T11:32:33;96124.16;;;10.48;57.03
29247;BME280;16272;48.188;9.964;2023-04-08T11:35:00;96125.13;;;10.95;56.67
29247;BME280;16272;48.188;9.964;2023-04-08T11:37:39;96119.78;;;11.04;57.72
29247;BME280;16272;48.188;9.964;2023-04-08T11:40:11;96117.59;;;10.53;57.50
29247;BME280;16272;48.188;9.964;2023-04-08T11:42:38;96117.00;;;10.59;56.29
29247;BME280;16272;48.188;9.964;2023-04-08T11:45:12;96112.31;;;9.84;58.89
29247;BME280;16272;48.188;9.964;2023-04-08T11:47:39;96118.41;;;10.53;56.51
29247;BME280;16272;48.188;9.964;2023-04-08T11:50:05;96108.25;;;10.86;57.25
29247;BME280;16272;48.188;9.964;2023-04-08T11:52:44;96104.38;;;10.71;58.92
29247;BME280;16272;48.188;9.964;2023-04-08T11:55:10;96111.59;;;10.88;60.71
29247;BME280;16272;48.188;9.964;2023-04-08T11:57:38;96110.47;;;10.91;60.72
29247;BME280;16272;48.188;9.964;2023-04-08T12:00:05;96111.41;;;10.99;60.12
29247;BME280;16272;48.188;9.964;2023-04-08T12:02:31;96116.59;;;11.01;58.05
29247;BME280;16272;48.188;9.964;2023-04-08T12:04:59;96112.59;;;11.15;57.22
29247;BME280;16272;48.188;9.964;2023-04-08T12:07:27;96107.66;;;11.48;58.22
29247;BME280;16272;48.188;9.964;2023-04-08T12:09:52;96108.00;;;10.79;56.99
29247;BME280;16272;48.188;9.964;2023-04-08T12:12:19;96113.91;;;11.01;57.02
29247;BME280;16272;48.188;9.964;2023-04-08T12:14:44;96115.25;;;11.43;56.91
29247;BME280;16272;48.188;9.964;2023-04-08T12:17:10;96109.41;;;12.73;54.62
29247;BME280;16272;48.188;9.964;2023-04-08T12:19:35;96112.69;;;11.69;58.04
29247;BME280;16272;48.188;9.964;2023-04-08T12:22:07;96110.19;;;11.85;58.47
29247;BME280;16272;48.188;9.964;2023-04-08T12:24:33;96106.59;;;12.48;55.85
29247;BME280;16272;48.188;9.964;2023-04-08T12:26:58;96115.28;;;11.33;55.00
29247;BME280;16272;48.188;9.964;2023-04-08T12:29:23;96116.75;;;11.73;60.79
29247;BME280;16272;48.188;9.964;2023-04-08T12:31:49;96118.13;;;12.13;58.23
29247;BME280;16272;48.188;9.964;2023-04-08T12:34:14;96105.25;;;12.08;58.22
29247;BME280;16272;48.188;9.964;2023-04-08T12:36:40;96109.72;;;11.72;57.19
29247;BME280;16272;48.188;9.964;2023-04-08T12:39:07;96116.34;;;11.22;59.32
29247;BME280;16272;48.188;9.964;2023-04-08T12:41:32;96114.41;;;11.42;58.53
29247;BME280;16272;48.188;9.964;2023-04-08T12:43:57;96113.41;;;11.71;56.03
29247;BME280;16272;48.188;9.964;2023-04-08T12:46:22;96108.06;;;11.71;56.02
29247;BME280;16272;48.188;9.964;2023-04-08T12:48:48;96113.16;;;11.64;55.73
29247;BME280;16272;48.188;9.964;2023-04-08T12:51:13;96109.81;;;11.07;60.04
29247;BME280;16272;48.188;9.964;2023-04-08T12:53:38;96117.34;;;10.83;59.62
29247;BME280;16272;48.188;9.964;2023-04-08T12:56:04;96111.63;;;10.78;59.54
29247;BME280;16272;48.188;9.964;2023-04-08T12:58:29;96116.13;;;10.78;59.26
29247;BME280;16272;48.188;9.964;2023-04-08T13:00:55;96122.53;;;10.75;58.43
29247;BME280;16272;48.188;9.964;2023-04-08T13:03:20;96111.47;;;10.03;58.82
29247;BME280;16272;48.188;9.964;2023-04-08T13:05:48;96112.88;;;9.88;60.06
29247;BME280;16272;48.188;9.964;2023-04-08T13:08:13;96114.66;;;9.48;62.79
29247;BME280;16272;48.188;9.964;2023-04-08T13:10:38;96105.59;;;10.19;61.42
29247;BME280;16272;48.188;9.964;2023-04-08T13:13:05;96106.59;;;10.75;57.46
29247;BME280;16272;48.188;9.964;2023-04-08T13:15:31;96107.13;;;10.41;55.88
29247;BME280;16272;48.188;9.964;2023-04-08T13:17:56;96111.19;;;10.83;57.31
29247;BME280;16272;48.188;9.964;2023-04-08T13:20:21;96108.50;;;10.93;55.36
29247;BME280;16272;48.188;9.964;2023-04-08T13:22:51;96107.69;;;10.92;52.91
29247;BME280;16272;48.188;9.964;2023-04-08T13:25:16;96115.91;;;10.99;55.03